Close Search

Base
°C
Summit
°C

WEATHER AT A GLANCE

Image Slideshow

RMR Village

Revelstoke Mountain Resort -  RMR Village Webcam

Top of The Stoke

Revelstoke Mountain Resort -  Top of The Stoke Webcam

Top of Stellar

Revelstoke Mountain Resort -  Top of Stellar Webcam

Mackenzie Outpost

Revelstoke Mountain Resort -  Mackenzie Outpost Webcam

Ripper

Revelstoke Mountain Resort -  Ripper Webcam
Base
°C
Summit
°C
Wind (Summit)
km/h

Today's Forecast

Subpeak Weather

Time Avg. Air Temp Dew Point Avg. Rel Humidity Avg. 2 Min Wind Speed Max Gust Velocity MGV Time MGV Direction Avg. Spot Wind Velocity
2026-05-08 15:40:003° C0° C81%15 km/h17 km/h15:39:00S14 km/h
14:40:004° C-0° C75%12 km/h19 km/h14:36:00S14 km/h
13:40:005° C-1° C62%11 km/h13 km/h13:40:00S11 km/h
12:40:004° C-2° C64%10 km/h13 km/h12:37:00S11 km/h
11:40:005° C-2° C59%17 km/h18 km/h11:40:00S16 km/h
10:40:006° C-4° C52%14 km/h17 km/h10:37:00S14 km/h
09:40:006° C-5° C44%14 km/h18 km/h09:40:00S12 km/h
08:40:005° C-7° C41%12 km/h14 km/h08:40:00S12 km/h
07:40:005° C-7° C43%20 km/h22 km/h07:37:00SW20 km/h
06:40:005° C-7° C44%16 km/h16 km/h06:39:00S15 km/h
05:40:005° C-7° C42%17 km/h19 km/h05:40:00SW16 km/h
04:40:004° C-6° C47%20 km/h22 km/h04:40:00SW20 km/h
03:40:004° C-5° C51%17 km/h19 km/h03:37:00SW17 km/h
02:40:005° C-7° C39%15 km/h19 km/h02:37:00W17 km/h
01:40:005° C-6° C44%18 km/h20 km/h01:38:00W17 km/h
00:40:005° C-6° C47%15 km/h18 km/h00:39:00W15 km/h
23:40:005° C-4° C55%15 km/h17 km/h23:39:00SW15 km/h
22:40:005° C-4° C50%16 km/h17 km/h22:36:00W16 km/h
21:40:005° C-4° C51%11 km/h12 km/h21:36:00W10 km/h
20:40:005° C-4° C50%13 km/h16 km/h20:36:00W14 km/h
19:40:006° C-3° C52%10 km/h11 km/h19:40:00W10 km/h
18:40:006° C-4° C50%14 km/h18 km/h18:36:00NW13 km/h
17:40:006° C-5° C48%4 km/h15 km/h17:37:00NW8 km/h
16:40:006° C-3° C51%9 km/h21 km/h16:39:00W7 km/h

Time Avg. Air Temp Dew Point Avg. Rel Humidity Avg. 2 Min Wind Speed Max Gust Velocity MGV Time MGV Direction Avg. Spot Wind Velocity
2026-05-08 15:40:003° C0° C81%15 km/h17 km/h15:39:00S14 km/h
15:35:003° C0° C85%9 km/h11 km/h15:35:00S7 km/h
15:30:003° C1° C87%9 km/h12 km/h15:28:00E10 km/h
15:25:003° C1° C87%9 km/h11 km/h15:24:00E8 km/h
15:20:003° C1° C85%4 km/h12 km/h15:16:00S5 km/h
15:15:003° C0° C83%12 km/h17 km/h15:14:00SW11 km/h
15:10:003° C0° C82%10 km/h17 km/h15:07:00SW12 km/h
15:05:003° C-0° C80%12 km/h20 km/h15:01:00SE15 km/h
15:00:003° C-0° C78%21 km/h25 km/h14:59:00S18 km/h
14:55:003° C-1° C73%16 km/h22 km/h14:54:00SW15 km/h
14:50:004° C-0° C77%15 km/h20 km/h14:50:00S15 km/h
14:45:004° C0° C77%17 km/h19 km/h14:42:00S15 km/h
14:40:004° C-0° C75%12 km/h19 km/h14:36:00S14 km/h

We value your privacy
We use cookies to enhance your browsing experience, serve personalized ads or content, and analyze our traffic. By clicking "Allow Cookies", you consent to our use of cookies. For additional details view our Privacy Policy.
Cookie preferences

You can control how your data is used on our website. Learn more below about the cookies we use by reviewing our Privacy Policy.

Your cookie preferences have been saved.